createdAt,value
2018-08-11T00:00:20.463Z,3.00
2018-08-11T00:02:49.158Z,2.83
2018-08-11T00:05:18.273Z,3.17
2018-08-11T00:07:47.318Z,3.30
2018-08-11T00:10:16.022Z,3.37
2018-08-11T00:12:44.702Z,3.00
2018-08-11T00:15:17.141Z,3.17
2018-08-11T00:17:46.064Z,2.73
2018-08-11T00:20:18.570Z,2.73
2018-08-11T00:22:47.270Z,2.80
2018-08-11T00:25:16.704Z,2.60
2018-08-11T00:28:48.524Z,2.63
2018-08-11T00:31:17.174Z,2.90
2018-08-11T00:33:45.766Z,2.83
2018-08-11T00:36:14.436Z,2.90
2018-08-11T00:38:43.081Z,3.37
2018-08-11T00:41:11.829Z,2.80
2018-08-11T00:43:40.470Z,2.60
2018-08-11T00:46:09.159Z,2.50
2018-08-11T00:48:37.838Z,2.77
2018-08-11T00:51:06.640Z,2.80
2018-08-11T00:53:35.266Z,2.90
2018-08-11T00:56:04.054Z,2.93
2018-08-11T00:58:32.706Z,2.53
2018-08-11T01:01:01.434Z,2.47
2018-08-11T01:03:30.151Z,2.87
2018-08-11T01:05:58.842Z,2.50
2018-08-11T01:08:27.492Z,2.83
2018-08-11T01:10:56.207Z,3.00
2018-08-11T01:13:24.859Z,2.83
2018-08-11T01:15:53.523Z,2.77
2018-08-11T01:18:22.203Z,2.97
2018-08-11T01:20:50.848Z,3.10
2018-08-11T01:23:19.541Z,2.70
2018-08-11T01:25:48.179Z,2.97
2018-08-11T01:28:16.810Z,3.33
2018-08-11T01:30:45.508Z,2.83
2018-08-11T01:33:14.240Z,3.07
2018-08-11T01:35:42.879Z,3.60
2018-08-11T01:38:11.584Z,3.40
2018-08-11T01:40:40.222Z,3.53
2018-08-11T01:43:08.885Z,3.10
2018-08-11T01:45:37.509Z,3.43
2018-08-11T01:48:06.382Z,3.20
2018-08-11T01:50:35.009Z,3.50
2018-08-11T01:53:03.680Z,3.23
2018-08-11T01:55:32.343Z,3.20
2018-08-11T01:59:04.181Z,3.30
2018-08-11T02:01:32.864Z,3.23
2018-08-11T02:04:01.561Z,2.93
2018-08-11T02:06:30.183Z,3.17
2018-08-11T02:08:58.789Z,3.23
2018-08-11T02:11:27.498Z,3.20
2018-08-11T02:13:56.242Z,3.40
2018-08-11T02:16:24.892Z,2.90
2018-08-11T02:18:53.570Z,3.47
2018-08-11T02:21:22.183Z,3.40
2018-08-11T02:23:50.853Z,3.17
2018-08-11T02:26:19.504Z,3.20
2018-08-11T02:28:48.134Z,3.10
2018-08-11T02:31:16.811Z,3.20
2018-08-11T02:33:45.474Z,3.10
2018-08-11T02:36:14.097Z,3.20
2018-08-11T02:38:42.730Z,3.20
2018-08-11T02:41:11.373Z,2.93
2018-08-11T02:43:40.090Z,3.10
2018-08-11T02:46:08.940Z,3.13
2018-08-11T02:48:37.607Z,3.00
2018-08-11T02:51:06.340Z,3.37
2018-08-11T02:53:35.048Z,3.27
2018-08-11T02:56:03.724Z,3.63
2018-08-11T02:58:32.378Z,4.60
2018-08-11T03:01:00.993Z,4.90
2018-08-11T03:03:29.659Z,5.67
2018-08-11T03:05:58.283Z,5.47
2018-08-11T03:08:26.971Z,6.57
2018-08-11T03:10:55.622Z,6.90
2018-08-11T03:13:25.099Z,7.87
2018-08-11T03:15:53.742Z,8.33
2018-08-11T03:18:22.444Z,7.63
2018-08-11T03:20:51.101Z,8.00
2018-08-11T03:23:19.709Z,8.20
2018-08-11T03:25:48.334Z,8.13
2018-08-11T03:28:16.970Z,8.57
2018-08-11T03:30:45.629Z,8.03
2018-08-11T03:33:14.910Z,8.83
2018-08-11T03:35:43.580Z,9.07
2018-08-11T03:38:12.249Z,8.50
2018-08-11T03:40:40.886Z,8.57
2018-08-11T03:43:09.566Z,8.50
2018-08-11T03:45:38.285Z,7.93
2018-08-11T03:48:07.447Z,7.83
2018-08-11T03:50:36.084Z,8.83
2018-08-11T03:53:04.737Z,7.80
2018-08-11T03:55:33.445Z,7.97
2018-08-11T03:58:02.058Z,7.40
2018-08-11T04:00:30.735Z,6.90
2018-08-11T04:02:59.388Z,7.50
2018-08-11T04:05:28.039Z,6.93
2018-08-11T04:07:56.660Z,7.17
2018-08-11T04:10:25.298Z,6.77
2018-08-11T04:12:53.995Z,6.77
2018-08-11T04:15:22.759Z,6.60
2018-08-11T04:17:51.446Z,6.20
2018-08-11T04:20:20.086Z,5.90
2018-08-11T04:22:48.804Z,6.00
2018-08-11T04:25:17.423Z,5.40
2018-08-11T04:27:46.102Z,5.03
2018-08-11T04:30:14.777Z,4.10
2018-08-11T04:32:43.471Z,4.13
2018-08-11T04:35:12.165Z,4.30
2018-08-11T04:37:40.783Z,3.43
2018-08-11T04:40:09.416Z,3.53
2018-08-11T04:42:38.107Z,3.03
2018-08-11T04:45:08.082Z,3.23
2018-08-11T04:47:36.754Z,3.43
2018-08-11T04:50:05.870Z,3.40
2018-08-11T04:52:34.710Z,3.77
2018-08-11T04:55:03.466Z,3.03
2018-08-11T04:57:32.074Z,3.27
2018-08-11T05:00:00.722Z,3.73
2018-08-11T05:02:29.334Z,3.83
2018-08-11T05:04:58.122Z,6.73
2018-08-11T05:07:26.811Z,3.53
2018-08-11T05:09:55.492Z,3.60
2018-08-11T05:12:24.186Z,3.80
2018-08-11T05:14:52.844Z,4.10
2018-08-11T05:17:21.433Z,4.13
2018-08-11T05:19:50.140Z,4.17
2018-08-11T05:22:18.855Z,4.57
2018-08-11T05:24:47.747Z,4.27
2018-08-11T05:27:16.432Z,4.53
2018-08-11T05:29:45.138Z,3.83
2018-08-11T05:32:13.804Z,3.90
2018-08-11T05:34:42.437Z,3.60
2018-08-11T05:37:11.137Z,4.10
2018-08-11T05:39:39.824Z,4.00
2018-08-11T05:42:08.775Z,4.27
2018-08-11T05:44:37.370Z,3.77
2018-08-11T05:47:06.262Z,3.53
2018-08-11T05:49:34.962Z,4.00
2018-08-11T05:52:03.648Z,3.50
2018-08-11T05:54:32.305Z,3.83
2018-08-11T05:57:00.891Z,3.47
2018-08-11T05:59:29.503Z,3.63
2018-08-11T06:01:58.153Z,4.30
2018-08-11T06:04:26.814Z,3.60
2018-08-11T06:06:55.513Z,3.37
2018-08-11T06:09:24.294Z,3.30
2018-08-11T06:11:52.962Z,3.73
2018-08-11T06:14:21.574Z,3.77
2018-08-11T06:16:50.221Z,3.40
2018-08-11T06:19:18.882Z,3.60
2018-08-11T06:21:47.580Z,3.67
2018-08-11T06:24:16.539Z,3.27
2018-08-11T06:26:45.148Z,3.70
2018-08-11T06:29:13.871Z,3.77
2018-08-11T06:31:42.564Z,3.60
2018-08-11T06:34:11.219Z,4.07
2018-08-11T06:36:39.892Z,3.63
2018-08-11T06:39:12.157Z,4.70
2018-08-11T06:41:40.947Z,4.10
2018-08-11T06:44:09.962Z,4.30
2018-08-11T06:46:38.658Z,5.23
2018-08-11T06:49:07.366Z,5.07
2018-08-11T06:51:36.099Z,5.43
2018-08-11T06:54:04.806Z,5.40
2018-08-11T06:56:33.438Z,4.57
2018-08-11T06:59:02.151Z,4.73
2018-08-11T07:01:30.826Z,4.43
2018-08-11T07:04:01.337Z,5.30
2018-08-11T07:06:29.951Z,4.57
2018-08-11T07:08:58.655Z,4.63
2018-08-11T07:11:27.320Z,4.50
2018-08-11T07:13:55.938Z,4.30
2018-08-11T07:16:24.631Z,4.43
2018-08-11T07:18:53.238Z,3.57
2018-08-11T07:21:21.899Z,3.77
2018-08-11T07:23:50.462Z,4.20
2018-08-11T07:26:19.123Z,4.47
2018-08-11T07:28:47.735Z,4.53
2018-08-11T07:31:16.405Z,5.43
2018-08-11T07:33:44.999Z,4.03
2018-08-11T07:36:13.662Z,3.10
2018-08-11T07:38:42.614Z,3.20
2018-08-11T07:41:11.339Z,3.40
2018-08-11T07:43:39.959Z,3.47
2018-08-11T07:46:08.638Z,3.33
2018-08-11T07:48:37.294Z,3.20
2018-08-11T07:51:05.949Z,2.80
2018-08-11T07:53:34.629Z,3.07
2018-08-11T07:56:03.344Z,3.60
2018-08-11T07:58:31.992Z,3.20
2018-08-11T08:01:00.621Z,2.83
2018-08-11T08:03:29.262Z,2.73
2018-08-11T08:05:57.867Z,2.60
2018-08-11T08:08:26.511Z,2.20
2018-08-11T08:10:55.146Z,2.60
2018-08-11T08:14:53.195Z,2.40
2018-08-11T08:17:22.990Z,2.53
2018-08-11T08:19:51.686Z,2.70
2018-08-11T08:22:20.332Z,2.63
2018-08-11T08:24:49.843Z,2.50
2018-08-11T08:27:18.495Z,9.97
2018-08-11T08:29:47.123Z,2.27
2018-08-11T08:32:15.806Z,2.70
2018-08-11T08:34:44.429Z,2.67
2018-08-11T08:37:13.138Z,2.73
2018-08-11T08:39:41.764Z,2.97
2018-08-11T08:43:39.787Z,3.57
2018-08-11T08:46:08.490Z,2.43
2018-08-11T08:48:37.101Z,2.63
2018-08-11T08:51:05.778Z,2.67
2018-08-11T08:53:34.478Z,2.13
2018-08-11T08:56:03.263Z,2.60
2018-08-11T08:58:31.928Z,2.47
2018-08-11T09:01:00.567Z,2.70
2018-08-11T09:03:29.282Z,2.47
2018-08-11T09:05:57.970Z,2.70
2018-08-11T09:08:27.598Z,4.40
2018-08-11T09:10:56.242Z,4.37
2018-08-11T09:13:25.291Z,2.60
2018-08-11T09:15:54.019Z,2.80
2018-08-11T09:18:22.881Z,2.10
2018-08-11T09:20:51.510Z,2.63
2018-08-11T09:23:20.179Z,2.50
2018-08-11T09:25:48.884Z,2.80
2018-08-11T09:28:17.580Z,3.83
2018-08-11T09:30:46.226Z,2.63
2018-08-11T09:33:14.819Z,2.60
2018-08-11T09:35:43.474Z,2.57
2018-08-11T09:38:12.122Z,2.83
2018-08-11T09:40:40.752Z,2.90
2018-08-11T09:43:09.419Z,2.60
2018-08-11T09:45:38.216Z,2.50
2018-08-11T09:48:06.892Z,2.70
2018-08-11T09:50:35.576Z,2.60
2018-08-11T09:53:04.551Z,2.67
2018-08-11T09:55:33.199Z,2.00
2018-08-11T09:58:01.875Z,2.70
2018-08-11T10:00:35.766Z,2.50
2018-08-11T10:03:04.458Z,2.50
2018-08-11T10:05:33.086Z,2.33
2018-08-11T10:08:01.742Z,2.92
2018-08-11T10:10:30.834Z,2.62
2018-08-11T10:13:00.464Z,2.63
2018-08-11T10:15:29.164Z,2.70
2018-08-11T10:17:57.798Z,2.50
2018-08-11T10:20:26.527Z,2.20
2018-08-11T10:22:55.137Z,2.37
2018-08-11T10:25:23.811Z,2.40
2018-08-11T10:27:52.497Z,2.30
2018-08-11T10:30:21.230Z,2.37
2018-08-11T10:32:49.929Z,2.40
2018-08-11T10:35:18.587Z,2.20
2018-08-11T10:37:47.274Z,2.17
2018-08-11T10:40:16.031Z,2.17
2018-08-11T10:42:44.617Z,1.63
2018-08-11T10:45:13.340Z,2.60
2018-08-11T10:47:41.995Z,2.15
2018-08-11T10:50:10.648Z,2.22
2018-08-11T10:52:39.294Z,2.10
2018-08-11T10:55:08.060Z,2.30
2018-08-11T10:57:36.706Z,2.45
2018-08-11T11:00:07.188Z,2.58
2018-08-11T11:02:35.813Z,2.17
2018-08-11T11:05:04.550Z,2.25
2018-08-11T11:07:33.187Z,2.52
2018-08-11T11:10:01.855Z,2.30
2018-08-11T11:12:30.440Z,1.90
2018-08-11T11:14:59.063Z,1.90
2018-08-11T11:17:27.856Z,1.82
2018-08-11T11:19:56.486Z,2.00
2018-08-11T11:22:25.105Z,1.82
2018-08-11T11:24:53.756Z,1.80
2018-08-11T11:27:22.387Z,1.77
2018-08-11T11:29:51.035Z,1.87
2018-08-11T11:32:19.625Z,2.45
2018-08-11T11:34:48.291Z,1.77
2018-08-11T11:37:16.965Z,2.05
2018-08-11T11:39:45.605Z,2.15
2018-08-11T11:42:14.255Z,1.98
2018-08-11T11:44:42.959Z,1.80
2018-08-11T11:47:11.594Z,1.90
2018-08-11T11:49:40.299Z,2.30
2018-08-11T11:52:08.907Z,1.70
2018-08-11T11:54:37.505Z,1.85
2018-08-11T11:57:06.363Z,2.05
2018-08-11T11:59:35.051Z,2.20
2018-08-11T12:03:32.763Z,2.08
2018-08-11T12:06:01.411Z,1.85
2018-08-11T12:08:30.464Z,1.90
2018-08-11T12:10:59.048Z,1.80
2018-08-11T12:13:27.693Z,1.60
2018-08-11T12:15:56.310Z,2.02
2018-08-11T12:18:25.026Z,1.90
2018-08-11T12:20:53.674Z,2.12
2018-08-11T12:23:22.324Z,1.80
2018-08-11T12:25:50.986Z,1.62
2018-08-11T12:28:20.092Z,1.80
2018-08-11T12:30:48.796Z,1.85
2018-08-11T12:33:17.382Z,2.08
2018-08-11T12:35:45.992Z,1.70
2018-08-11T12:38:14.646Z,1.85
2018-08-11T12:40:43.280Z,1.80
2018-08-11T12:43:11.908Z,1.80
2018-08-11T12:45:40.580Z,1.60
2018-08-11T12:48:09.233Z,1.82
2018-08-11T12:50:37.869Z,1.95
2018-08-11T12:53:06.495Z,1.60
2018-08-11T12:55:35.207Z,2.30
2018-08-11T12:58:03.923Z,1.50
2018-08-11T13:00:32.597Z,1.90
2018-08-11T13:03:01.249Z,1.70
2018-08-11T13:05:29.873Z,1.90
2018-08-11T13:07:58.491Z,1.80
2018-08-11T13:10:27.095Z,1.70
2018-08-11T13:12:55.764Z,1.80
2018-08-11T13:15:24.395Z,1.82
2018-08-11T13:17:53.038Z,2.10
2018-08-11T13:20:21.714Z,1.82
2018-08-11T13:22:50.370Z,1.80
2018-08-11T13:25:19.040Z,1.95
2018-08-11T13:27:47.758Z,1.90
2018-08-11T13:30:16.517Z,1.80
2018-08-11T13:32:45.114Z,1.70
2018-08-11T13:35:13.742Z,1.92
2018-08-11T13:37:42.438Z,1.98
2018-08-11T13:40:11.106Z,1.90
2018-08-11T13:42:39.723Z,7.50
2018-08-11T13:45:08.463Z,3.60
2018-08-11T13:47:37.200Z,1.70
2018-08-11T13:50:07.140Z,1.92
2018-08-11T13:52:35.758Z,1.60
2018-08-11T13:55:04.982Z,1.92
2018-08-11T13:57:33.587Z,1.70
2018-08-11T14:00:03.770Z,2.10
2018-08-11T14:02:32.365Z,1.90
2018-08-11T14:05:01.043Z,1.90
2018-08-11T14:07:29.666Z,1.85
2018-08-11T14:09:59.279Z,1.80
2018-08-11T14:12:28.016Z,2.02
2018-08-11T14:14:56.759Z,1.80
2018-08-11T14:17:25.572Z,2.10
2018-08-11T14:19:54.191Z,2.02
2018-08-11T14:22:22.836Z,1.82
2018-08-11T14:24:51.447Z,1.90
2018-08-11T14:27:20.129Z,1.80
2018-08-11T14:29:48.784Z,1.92
2018-08-11T14:32:17.462Z,1.90
2018-08-11T14:34:46.134Z,2.00
2018-08-11T14:37:14.785Z,2.00
2018-08-11T14:39:43.534Z,2.08
2018-08-11T14:42:12.167Z,2.00
2018-08-11T14:44:40.784Z,2.00
2018-08-11T14:47:09.454Z,2.10
2018-08-11T14:49:38.090Z,2.00
2018-08-11T14:52:06.894Z,1.82
2018-08-11T14:54:35.500Z,2.17
2018-08-11T14:57:04.132Z,1.90
2018-08-11T14:59:32.878Z,2.10
2018-08-11T15:02:01.502Z,2.02
2018-08-11T15:04:30.170Z,2.35
2018-08-11T15:06:58.801Z,1.82
2018-08-11T15:09:27.455Z,2.35
2018-08-11T15:11:56.081Z,2.00
2018-08-11T15:14:24.696Z,2.20
2018-08-11T15:16:53.337Z,1.98
2018-08-11T15:19:21.925Z,1.67
2018-08-11T15:21:50.582Z,1.90
2018-08-11T15:24:19.623Z,2.12
2018-08-11T15:26:48.235Z,1.95
2018-08-11T15:29:16.927Z,1.98
2018-08-11T15:31:45.530Z,2.00
2018-08-11T15:34:14.157Z,2.20
2018-08-11T15:36:42.795Z,2.15
2018-08-11T15:39:12.990Z,2.05
2018-08-11T15:41:41.842Z,2.25
2018-08-11T15:44:10.426Z,2.00
2018-08-11T15:46:39.092Z,2.00
2018-08-11T15:49:07.764Z,2.08
2018-08-11T15:51:36.408Z,2.55
2018-08-11T15:54:05.135Z,2.15
2018-08-11T15:56:33.758Z,1.90
2018-08-11T15:59:02.387Z,2.08
2018-08-11T16:01:31.007Z,2.08
2018-08-11T16:03:59.668Z,1.90
2018-08-11T16:06:28.364Z,1.90
2018-08-11T16:08:56.962Z,2.95
2018-08-11T16:11:25.628Z,2.08
2018-08-11T16:13:54.254Z,2.10
2018-08-11T16:16:22.946Z,2.30
2018-08-11T16:18:51.635Z,1.87
2018-08-11T16:21:35.006Z,2.33
2018-08-11T16:24:03.711Z,2.33
2018-08-11T16:26:32.326Z,2.22
2018-08-11T16:29:01.870Z,2.02
2018-08-11T16:31:30.470Z,2.33
2018-08-11T16:33:59.139Z,2.45
2018-08-11T16:36:27.790Z,2.95
2018-08-11T16:38:56.409Z,2.55
2018-08-11T16:41:25.122Z,3.20
2018-08-11T16:43:53.881Z,2.47
2018-08-11T16:46:22.500Z,2.87
2018-08-11T16:48:51.191Z,2.20
2018-08-11T16:51:19.798Z,2.52
2018-08-11T16:53:48.447Z,2.40
2018-08-11T16:56:17.096Z,2.50
2018-08-11T16:58:45.695Z,2.33
2018-08-11T17:01:14.343Z,2.20
2018-08-11T17:03:43.003Z,2.43
2018-08-11T17:06:11.637Z,2.47
2018-08-11T17:08:41.130Z,2.70
2018-08-11T17:11:10.100Z,2.33
2018-08-11T17:13:39.625Z,2.53
2018-08-11T17:16:08.692Z,2.70
2018-08-11T17:18:37.323Z,2.33
2018-08-11T17:21:06.000Z,2.35
2018-08-11T17:23:34.655Z,2.67
2018-08-11T17:26:03.250Z,2.50
2018-08-11T17:28:32.074Z,3.00
2018-08-11T17:31:00.714Z,3.10
2018-08-11T17:33:29.349Z,3.33
2018-08-11T17:35:57.969Z,3.30
2018-08-11T17:38:26.606Z,2.97
2018-08-11T17:40:55.303Z,2.70
2018-08-11T17:43:23.930Z,3.00
2018-08-11T17:45:53.443Z,2.80
2018-08-11T17:48:22.075Z,2.73
2018-08-11T17:50:50.659Z,2.87
2018-08-11T17:53:19.307Z,2.80
2018-08-11T17:55:47.981Z,2.80
2018-08-11T17:58:16.627Z,2.90
2018-08-11T18:00:45.347Z,3.20
2018-08-11T18:03:14.006Z,2.70
2018-08-11T18:05:42.679Z,2.57
2018-08-11T18:08:11.341Z,2.67
2018-08-11T18:10:40.007Z,3.00
2018-08-11T18:13:08.812Z,3.10
2018-08-11T18:15:37.450Z,3.23
2018-08-11T18:18:06.062Z,3.50
2018-08-11T18:20:34.730Z,3.57
2018-08-11T18:23:03.337Z,3.40
2018-08-11T18:25:32.077Z,3.70
2018-08-11T18:28:00.742Z,3.97
2018-08-11T18:30:29.424Z,5.20
2018-08-11T18:32:58.104Z,4.17
2018-08-11T18:35:26.815Z,3.90
2018-08-11T18:37:55.501Z,3.97
2018-08-11T18:40:24.242Z,4.20
2018-08-11T18:42:52.930Z,3.70
2018-08-11T18:45:21.534Z,4.07
2018-08-11T18:47:50.173Z,4.50
2018-08-11T18:50:18.886Z,4.30
2018-08-11T18:52:47.598Z,4.03
2018-08-11T18:55:16.284Z,5.13
2018-08-11T18:57:45.038Z,5.10
2018-08-11T19:00:16.955Z,5.87
2018-08-11T19:02:46.024Z,4.50
2018-08-11T19:05:14.735Z,6.10
2018-08-11T19:07:43.478Z,4.80
2018-08-11T19:10:12.423Z,4.87
2018-08-11T19:12:41.123Z,5.00
2018-08-11T19:15:12.518Z,4.27
2018-08-11T19:17:41.240Z,3.87
2018-08-11T19:20:11.974Z,3.53
2018-08-11T19:22:40.706Z,3.60
2018-08-11T19:25:10.395Z,3.67
2018-08-11T19:27:39.108Z,4.03
2018-08-11T19:30:09.291Z,4.33
2018-08-11T19:32:38.537Z,3.90
2018-08-11T19:35:07.405Z,3.80
2018-08-11T19:37:36.892Z,3.50
2018-08-11T19:40:06.721Z,3.40
2018-08-11T19:42:35.450Z,3.43
2018-08-11T19:45:04.294Z,3.50
2018-08-11T19:47:33.038Z,3.47
2018-08-11T19:50:01.717Z,3.47
2018-08-11T19:52:30.339Z,3.90
2018-08-11T19:54:59.038Z,3.37
2018-08-11T19:57:27.745Z,3.20
2018-08-11T19:59:56.461Z,3.23
2018-08-11T20:02:25.116Z,3.60
2018-08-11T20:04:53.750Z,3.77
2018-08-11T20:07:22.450Z,3.33
2018-08-11T20:09:51.098Z,3.20
2018-08-11T20:12:19.762Z,3.60
2018-08-11T20:14:48.455Z,3.30
2018-08-11T20:17:17.173Z,3.50
2018-08-11T20:19:45.874Z,3.90
2018-08-11T20:22:18.770Z,3.50
2018-08-11T20:24:48.177Z,3.60
2018-08-11T20:27:17.319Z,3.50
2018-08-11T20:29:46.017Z,3.53
2018-08-11T20:32:15.337Z,3.60
2018-08-11T20:34:44.514Z,3.30
2018-08-11T20:37:13.554Z,3.40
2018-08-11T20:39:42.732Z,3.80
2018-08-11T20:42:11.405Z,3.53
2018-08-11T20:44:40.838Z,3.67
2018-08-11T20:47:09.507Z,3.27
2018-08-11T20:49:38.195Z,3.10
2018-08-11T20:52:06.985Z,3.50
2018-08-11T20:54:35.707Z,3.57
2018-08-11T20:57:04.566Z,3.60
2018-08-11T20:59:33.271Z,3.57
2018-08-11T21:02:01.931Z,3.20
2018-08-11T21:04:30.554Z,3.77
2018-08-11T21:06:59.224Z,3.60
2018-08-11T21:09:27.936Z,3.20
2018-08-11T21:11:56.618Z,3.30
2018-08-11T21:14:25.314Z,3.07
2018-08-11T21:16:54.028Z,3.23
2018-08-11T21:19:22.681Z,3.30
2018-08-11T21:21:51.306Z,3.00
2018-08-11T21:24:20.008Z,3.20
2018-08-11T21:26:48.667Z,3.10
2018-08-11T21:29:17.325Z,3.00
2018-08-11T21:31:46.009Z,3.30
2018-08-11T21:34:14.746Z,3.20
2018-08-11T21:36:43.404Z,3.40
2018-08-11T21:39:13.747Z,3.10
2018-08-11T21:41:42.820Z,3.03
2018-08-11T21:44:11.472Z,3.10
2018-08-11T21:46:40.174Z,3.03
2018-08-11T21:49:09.898Z,3.20
2018-08-11T21:51:38.562Z,3.17
2018-08-11T21:54:07.792Z,3.53
2018-08-11T21:56:36.512Z,3.10
2018-08-11T21:59:05.319Z,3.70
2018-08-11T22:01:33.991Z,3.70
2018-08-11T22:04:03.291Z,3.90
2018-08-11T22:06:31.930Z,4.30
2018-08-11T22:09:00.612Z,3.67
2018-08-11T22:11:29.279Z,3.87
2018-08-11T22:13:57.973Z,3.50
2018-08-11T22:16:26.705Z,3.70
2018-08-11T22:18:55.387Z,4.00
2018-08-11T22:21:24.078Z,3.40
2018-08-11T22:23:52.733Z,3.80
2018-08-11T22:26:21.371Z,3.40
2018-08-11T22:28:50.047Z,3.90
2018-08-11T22:31:18.781Z,3.50
2018-08-11T22:33:48.232Z,3.47
2018-08-11T22:36:16.908Z,3.40
2018-08-11T22:38:45.724Z,3.47
2018-08-11T22:41:14.364Z,3.70
2018-08-11T22:43:43.147Z,3.70
2018-08-11T22:46:11.815Z,3.80
2018-08-11T22:48:40.443Z,3.87
2018-08-11T22:51:09.182Z,4.30
2018-08-11T22:53:37.871Z,3.73
2018-08-11T22:56:06.637Z,3.73
2018-08-11T22:58:35.330Z,3.70
2018-08-11T23:01:04.080Z,3.70
2018-08-11T23:03:32.733Z,3.80
2018-08-11T23:06:01.423Z,3.97
2018-08-11T23:08:30.151Z,4.33
2018-08-11T23:10:58.814Z,3.50
2018-08-11T23:13:27.475Z,4.23
2018-08-11T23:15:56.160Z,3.60
2018-08-11T23:18:24.876Z,4.03
2018-08-11T23:20:53.531Z,3.90
2018-08-11T23:23:22.220Z,3.47
2018-08-11T23:25:50.918Z,3.97
2018-08-11T23:28:19.605Z,3.80
2018-08-11T23:30:48.380Z,4.10
2018-08-11T23:33:17.024Z,4.13
2018-08-11T23:35:45.639Z,4.13
2018-08-11T23:38:14.320Z,4.90
2018-08-11T23:40:43.078Z,4.50
2018-08-11T23:43:11.760Z,4.93
2018-08-11T23:45:40.534Z,5.07
2018-08-11T23:48:09.221Z,5.03
2018-08-11T23:50:37.923Z,5.37
2018-08-11T23:53:06.595Z,5.60
2018-08-11T23:55:35.278Z,6.17
2018-08-11T23:58:04.003Z,5.80
